createdAt,value
2022-12-12T00:02:09.655Z,-0.73
2022-12-12T00:04:41.662Z,-0.79
2022-12-12T00:07:13.626Z,-0.81
2022-12-12T00:09:45.617Z,-0.87
2022-12-12T00:12:17.544Z,-0.88
2022-12-12T00:14:49.485Z,-0.86
2022-12-12T00:17:21.515Z,-0.87
2022-12-12T00:19:53.464Z,-0.86
2022-12-12T00:22:25.426Z,-0.86
2022-12-12T00:24:57.337Z,-0.89
2022-12-12T00:27:31.752Z,-0.86
2022-12-12T00:30:05.933Z,-0.81
2022-12-12T00:32:38.048Z,-0.82
2022-12-12T00:35:10.413Z,-0.82
2022-12-12T00:37:42.557Z,-0.85
2022-12-12T00:40:14.464Z,-0.87
2022-12-12T00:42:46.429Z,-0.87
2022-12-12T00:45:18.421Z,-0.89
2022-12-12T00:47:50.522Z,-0.93
2022-12-12T00:50:22.442Z,-0.96
2022-12-12T00:52:57.363Z,-0.98
2022-12-12T00:55:29.591Z,-1.05
2022-12-12T00:58:01.671Z,-1.03
2022-12-12T01:00:34.413Z,-1.04
2022-12-12T01:03:06.404Z,-1.03
2022-12-12T01:05:38.444Z,-1.02
2022-12-12T01:08:10.770Z,-1.03
2022-12-12T01:10:42.759Z,-1.03
2022-12-12T01:13:14.694Z,-1.06
2022-12-12T01:15:46.737Z,-1.08
2022-12-12T01:18:20.138Z,-1.09
2022-12-12T01:20:52.726Z,-1.10
2022-12-12T01:23:25.052Z,-1.11
2022-12-12T01:26:13.609Z,-1.12
2022-12-12T01:28:46.301Z,-1.17
2022-12-12T01:31:18.363Z,-1.23
2022-12-12T01:33:50.898Z,-1.26
2022-12-12T01:36:23.944Z,-1.31
2022-12-12T01:38:57.175Z,-1.35
2022-12-12T01:41:29.233Z,-1.40
2022-12-12T01:44:08.050Z,-1.45
2022-12-12T01:46:44.396Z,-1.44
2022-12-12T01:49:24.763Z,-1.44
2022-12-12T01:51:59.447Z,-1.46
2022-12-12T01:54:35.763Z,-1.47
2022-12-12T01:57:15.288Z,-1.51
2022-12-12T01:59:47.408Z,-1.49
2022-12-12T02:02:19.488Z,-1.49
2022-12-12T02:04:51.827Z,-1.51
2022-12-12T02:07:26.370Z,-1.53
2022-12-12T02:09:58.299Z,-1.52
2022-12-12T02:12:30.468Z,-1.54
2022-12-12T02:15:02.694Z,-1.54
2022-12-12T02:18:03.518Z,-1.54
2022-12-12T02:21:10.657Z,-1.58
2022-12-12T02:24:28.750Z,-1.57
2022-12-12T02:27:09.372Z,-1.57
2022-12-12T02:30:05.321Z,-1.63
2022-12-12T02:32:50.879Z,-1.65
2022-12-12T02:35:34.610Z,-1.65
2022-12-12T02:38:22.607Z,-1.63
2022-12-12T02:41:09.959Z,-1.65
2022-12-12T02:44:30.937Z,-1.63
2022-12-12T02:47:12.796Z,-1.59
2022-12-12T02:50:22.042Z,-1.56
2022-12-12T02:52:54.164Z,-1.61
2022-12-12T02:55:26.231Z,-1.60
2022-12-12T02:57:58.522Z,-1.60
2022-12-12T03:00:46.886Z,-1.56
2022-12-12T03:03:59.958Z,-1.53
2022-12-12T03:07:37.822Z,-1.59
2022-12-12T03:10:26.903Z,-1.62
2022-12-12T03:13:30.301Z,-1.58
2022-12-12T03:16:23.069Z,-1.56
2022-12-12T03:19:25.622Z,-1.56
2022-12-12T03:22:14.579Z,-1.56
2022-12-12T03:25:23.754Z,-1.67
2022-12-12T03:28:34.062Z,-1.76
2022-12-12T03:31:09.202Z,-1.83
2022-12-12T03:33:45.444Z,-1.77
2022-12-12T03:36:46.463Z,-1.72
2022-12-12T03:39:29.702Z,-1.71
2022-12-12T03:42:28.347Z,-1.76
2022-12-12T03:45:13.095Z,-1.79
2022-12-12T03:47:54.569Z,-1.83
2022-12-12T03:50:37.928Z,-1.82
2022-12-12T03:53:21.103Z,-1.79
2022-12-12T03:56:02.160Z,-1.77
2022-12-12T03:58:43.383Z,-1.76
2022-12-12T04:01:19.769Z,-1.73
2022-12-12T04:04:12.346Z,-1.77
2022-12-12T04:06:59.514Z,-1.76
2022-12-12T04:09:50.513Z,-1.76
2022-12-12T04:12:49.010Z,-1.80
2022-12-12T04:15:46.859Z,-1.79
2022-12-12T04:18:38.207Z,-1.84
2022-12-12T04:22:01.131Z,-1.82
2022-12-12T04:24:44.386Z,-1.86
2022-12-12T04:27:41.029Z,-1.83
2022-12-12T04:30:15.554Z,-1.81
2022-12-12T04:33:12.007Z,-1.77
2022-12-12T04:35:49.477Z,-1.73
2022-12-12T04:38:24.318Z,-1.71
2022-12-12T04:40:58.763Z,-1.66
2022-12-12T04:43:37.952Z,-1.66
2022-12-12T04:46:21.587Z,-1.62
2022-12-12T04:48:59.861Z,-1.60
2022-12-12T04:51:38.163Z,-1.60
2022-12-12T04:54:12.277Z,-1.57
2022-12-12T04:56:50.302Z,-1.57
2022-12-12T04:59:23.124Z,-1.55
2022-12-12T05:02:07.729Z,-1.56
2022-12-12T05:05:12.631Z,-1.58
2022-12-12T05:07:57.236Z,-1.62
2022-12-12T05:10:29.419Z,-1.68
2022-12-12T05:13:01.673Z,-1.71
2022-12-12T05:15:33.804Z,-1.75
2022-12-12T05:18:09.191Z,-1.78
2022-12-12T05:20:41.215Z,-1.81
2022-12-12T05:23:13.177Z,-1.86
2022-12-12T05:25:45.383Z,-1.86
2022-12-12T05:28:17.311Z,-1.83
2022-12-12T05:30:49.281Z,-1.84
2022-12-12T05:33:21.239Z,-1.84
2022-12-12T05:35:53.199Z,-1.82
2022-12-12T05:38:25.110Z,-1.81
2022-12-12T05:40:57.077Z,-1.83
2022-12-12T05:43:29.072Z,-1.84
2022-12-12T05:46:01.231Z,-1.84
2022-12-12T05:48:33.682Z,-1.82
2022-12-12T05:51:05.769Z,-1.81
2022-12-12T05:53:42.897Z,-1.82
2022-12-12T05:56:15.277Z,-1.81
2022-12-12T05:58:47.187Z,-1.79
2022-12-12T06:01:19.170Z,-1.79
2022-12-12T06:03:51.272Z,-1.79
2022-12-12T06:06:26.110Z,-1.82
2022-12-12T06:08:58.026Z,-1.83
2022-12-12T06:11:30.102Z,-1.86
2022-12-12T06:14:03.141Z,-1.86
2022-12-12T06:16:36.209Z,-1.81
2022-12-12T06:19:08.175Z,-1.82
2022-12-12T06:21:40.157Z,-1.82
2022-12-12T06:24:12.146Z,-1.81
2022-12-12T06:26:44.183Z,-1.83
2022-12-12T06:29:16.129Z,-1.86
2022-12-12T06:31:48.846Z,-1.83
2022-12-12T06:34:20.798Z,-1.83
2022-12-12T06:36:52.826Z,-1.82
2022-12-12T06:39:24.830Z,-1.83
2022-12-12T06:41:56.821Z,-1.83
2022-12-12T06:44:28.763Z,-1.87
2022-12-12T06:47:00.751Z,-1.86
2022-12-12T06:49:32.696Z,-1.82
2022-12-12T06:52:04.820Z,-1.88
2022-12-12T06:54:36.830Z,-1.87
2022-12-12T06:57:08.879Z,-1.85
2022-12-12T06:59:40.900Z,-1.86
2022-12-12T07:02:12.960Z,-1.83
2022-12-12T07:04:44.888Z,-1.81
2022-12-12T07:07:16.916Z,-1.85
2022-12-12T07:09:48.958Z,-1.87
2022-12-12T07:12:20.940Z,-1.92
2022-12-12T07:14:52.980Z,-1.96
2022-12-12T07:17:27.921Z,-1.94
2022-12-12T07:19:59.879Z,-1.94
2022-12-12T07:22:31.866Z,-1.95
2022-12-12T07:25:06.730Z,-1.96
2022-12-12T07:27:38.818Z,-1.99
2022-12-12T07:30:12.470Z,-2.00
2022-12-12T07:32:44.412Z,-2.00
2022-12-12T07:35:16.466Z,-2.06
2022-12-12T07:37:48.500Z,-2.13
2022-12-12T07:40:20.432Z,-2.16
2022-12-12T07:42:52.536Z,-2.16
2022-12-12T07:45:24.899Z,-2.14
2022-12-12T07:47:57.195Z,-2.16
2022-12-12T07:50:29.320Z,-2.21
2022-12-12T07:53:01.294Z,-2.18
2022-12-12T07:55:33.739Z,-2.17
2022-12-12T07:58:05.676Z,-2.14
2022-12-12T08:00:37.763Z,-2.11
2022-12-12T08:03:09.728Z,-2.09
2022-12-12T08:05:43.266Z,-2.04
2022-12-12T08:08:15.786Z,-2.03
2022-12-12T08:10:47.799Z,-1.98
2022-12-12T08:13:19.726Z,-1.95
2022-12-12T08:15:51.703Z,-1.93
2022-12-12T08:18:23.648Z,-1.95
2022-12-12T08:20:55.942Z,-1.93
2022-12-12T08:23:27.869Z,-1.89
2022-12-12T08:26:11.747Z,-1.84
2022-12-12T08:28:45.868Z,-1.81
2022-12-12T08:31:20.536Z,-1.73
2022-12-12T08:33:53.405Z,-1.63
2022-12-12T08:36:32.140Z,-1.53
2022-12-12T08:39:12.387Z,-1.53
2022-12-12T08:41:48.036Z,-1.47
2022-12-12T08:44:21.021Z,-1.42
2022-12-12T08:46:53.298Z,-1.37
2022-12-12T08:49:25.255Z,-1.34
2022-12-12T08:51:57.225Z,-1.41
2022-12-12T08:54:29.870Z,-1.47
2022-12-12T08:57:01.789Z,-1.49
2022-12-12T08:59:33.721Z,-1.36
2022-12-12T09:02:05.836Z,-1.29
2022-12-12T09:04:38.117Z,-1.30
2022-12-12T09:07:10.054Z,-1.25
2022-12-12T09:09:42.031Z,-1.15
2022-12-12T09:12:14.102Z,-1.16
2022-12-12T09:14:46.121Z,-1.10
2022-12-12T09:17:18.042Z,-1.05
2022-12-12T09:19:50.324Z,-0.93
2022-12-12T09:22:22.458Z,-0.96
2022-12-12T09:24:54.399Z,-0.96
2022-12-12T09:27:26.361Z,-0.92
2022-12-12T09:29:58.807Z,-0.85
2022-12-12T09:32:30.746Z,-0.92
2022-12-12T09:35:02.724Z,-0.90
2022-12-12T09:37:34.859Z,-0.86
2022-12-12T09:40:08.054Z,-0.82
2022-12-12T09:42:48.327Z,-0.70
2022-12-12T09:45:20.576Z,-0.57
2022-12-12T09:47:57.855Z,-0.45
2022-12-12T09:50:46.060Z,-0.35
2022-12-12T09:53:21.991Z,-0.22
2022-12-12T09:56:15.066Z,-0.21
2022-12-12T09:58:57.647Z,-0.21
2022-12-12T10:01:53.190Z,-0.10
2022-12-12T10:05:07.497Z,-0.04
2022-12-12T10:08:16.718Z,0.06
2022-12-12T10:10:54.798Z,0.10
2022-12-12T10:13:30.236Z,0.07
2022-12-12T10:16:09.985Z,-0.09
2022-12-12T10:18:47.527Z,-0.14
2022-12-12T10:21:27.899Z,-0.12
2022-12-12T10:24:02.831Z,-0.12
2022-12-12T10:26:34.739Z,-0.20
2022-12-12T10:29:21.757Z,-0.10
2022-12-12T10:32:27.769Z,-0.01
2022-12-12T10:35:18.808Z,0.09
2022-12-12T10:38:17.367Z,0.22
2022-12-12T10:41:02.214Z,0.32
2022-12-12T10:43:52.439Z,0.31
2022-12-12T10:46:45.919Z,0.32
2022-12-12T10:49:22.385Z,0.42
2022-12-12T10:51:56.897Z,0.51
2022-12-12T10:54:37.270Z,0.63
2022-12-12T10:57:20.233Z,0.69
2022-12-12T10:59:58.211Z,0.76
2022-12-12T11:02:37.965Z,0.83
2022-12-12T11:05:28.615Z,0.86
2022-12-12T11:08:11.328Z,0.96
2022-12-12T11:10:43.524Z,1.04
2022-12-12T11:13:17.490Z,1.10
2022-12-12T11:16:02.497Z,1.15
2022-12-12T11:18:34.643Z,1.07
2022-12-12T11:21:10.370Z,1.17
2022-12-12T11:23:52.495Z,1.20
2022-12-12T11:26:29.470Z,1.23
2022-12-12T11:29:03.233Z,1.26
2022-12-12T11:31:35.824Z,1.04
2022-12-12T11:34:08.153Z,1.09
2022-12-12T11:36:42.424Z,1.20
2022-12-12T11:39:23.982Z,1.23
2022-12-12T11:42:13.950Z,1.26
2022-12-12T11:44:46.980Z,1.26
2022-12-12T11:47:18.857Z,1.32
2022-12-12T11:49:55.767Z,1.39
2022-12-12T11:52:31.079Z,1.38
2022-12-12T11:55:04.226Z,1.44
2022-12-12T11:57:43.834Z,1.37
2022-12-12T12:00:21.110Z,1.34
2022-12-12T12:03:05.464Z,1.38
2022-12-12T12:05:53.940Z,1.40
2022-12-12T12:08:40.095Z,1.34
2022-12-12T12:11:49.942Z,1.32
2022-12-12T12:15:03.448Z,1.33
2022-12-12T12:17:55.411Z,1.39
2022-12-12T12:21:14.737Z,1.36
2022-12-12T12:23:55.931Z,1.44
2022-12-12T12:26:47.607Z,1.51
2022-12-12T12:29:40.705Z,1.51
2022-12-12T12:32:44.450Z,1.50
2022-12-12T12:35:27.408Z,1.38
2022-12-12T12:38:43.113Z,1.40
2022-12-12T12:41:33.148Z,1.42
2022-12-12T12:44:43.562Z,1.46
2022-12-12T12:47:35.168Z,1.46
2022-12-12T12:50:44.225Z,1.61
2022-12-12T12:53:54.645Z,1.53
2022-12-12T12:56:43.776Z,1.57
2022-12-12T12:59:22.968Z,1.46
2022-12-12T13:01:57.902Z,1.41
2022-12-12T13:04:46.156Z,1.46
2022-12-12T13:07:50.136Z,1.49
2022-12-12T13:10:27.399Z,1.59
2022-12-12T13:13:31.935Z,1.55
2022-12-12T13:16:27.146Z,1.59
2022-12-12T13:19:35.652Z,1.59
2022-12-12T13:22:41.694Z,1.50
2022-12-12T13:25:40.564Z,1.54
2022-12-12T13:28:18.957Z,1.50
2022-12-12T13:31:35.947Z,1.48
2022-12-12T13:34:19.946Z,1.52
2022-12-12T13:36:52.520Z,1.57
2022-12-12T13:39:30.788Z,1.51
2022-12-12T13:42:08.691Z,1.45
2022-12-12T13:44:44.383Z,1.44
2022-12-12T13:47:21.987Z,1.40
2022-12-12T13:50:22.965Z,1.40
2022-12-12T13:53:07.014Z,1.31
2022-12-12T13:55:39.113Z,1.31
2022-12-12T13:58:21.458Z,1.31
2022-12-12T14:01:37.755Z,1.29
2022-12-12T14:04:34.468Z,1.25
2022-12-12T14:07:15.442Z,1.28
2022-12-12T14:09:52.573Z,1.32
2022-12-12T14:12:34.818Z,1.31
2022-12-12T14:15:19.726Z,1.24
2022-12-12T14:18:02.022Z,1.14
2022-12-12T14:20:36.945Z,1.15
2022-12-12T14:23:24.731Z,1.20
2022-12-12T14:25:59.871Z,1.20
2022-12-12T14:28:33.793Z,1.19
2022-12-12T14:31:14.840Z,1.20
2022-12-12T14:33:55.733Z,1.19
2022-12-12T14:37:12.949Z,1.14
2022-12-12T14:40:21.555Z,1.12
2022-12-12T14:43:22.982Z,1.06
2022-12-12T14:46:01.315Z,1.06
2022-12-12T14:48:35.946Z,1.04
2022-12-12T14:51:29.738Z,1.03
2022-12-12T14:54:04.328Z,0.99
2022-12-12T14:56:49.139Z,0.95
2022-12-12T14:59:29.917Z,0.93
2022-12-12T15:02:33.898Z,0.88
2022-12-12T15:05:08.029Z,0.81
2022-12-12T15:07:40.044Z,0.80
2022-12-12T15:10:30.647Z,0.77
2022-12-12T15:13:02.668Z,0.74
2022-12-12T15:15:35.587Z,0.68
2022-12-12T15:18:12.742Z,0.64
2022-12-12T15:20:44.678Z,0.63
2022-12-12T15:23:19.846Z,0.53
2022-12-12T15:25:55.942Z,0.54
2022-12-12T15:28:28.732Z,0.54
2022-12-12T15:31:01.310Z,0.54
2022-12-12T15:33:38.953Z,0.54
2022-12-12T15:36:29.090Z,0.50
2022-12-12T15:39:14.500Z,0.48
2022-12-12T15:41:47.436Z,0.48
2022-12-12T15:44:21.067Z,0.45
2022-12-12T15:46:53.448Z,0.42
2022-12-12T15:49:44.148Z,0.39
2022-12-12T15:52:29.984Z,0.27
2022-12-12T15:55:05.129Z,0.23
2022-12-12T15:57:49.887Z,0.21
2022-12-12T16:00:34.904Z,0.24
2022-12-12T16:03:27.175Z,0.19
2022-12-12T16:06:17.412Z,0.16
2022-12-12T16:08:54.410Z,0.16
2022-12-12T16:11:47.486Z,0.15
2022-12-12T16:14:42.098Z,0.16
2022-12-12T16:17:23.595Z,0.12
2022-12-12T16:19:58.998Z,0.12
2022-12-12T16:22:46.701Z,0.13
2022-12-12T16:25:28.278Z,0.12
2022-12-12T16:28:06.076Z,0.12
2022-12-12T16:30:42.005Z,0.09
2022-12-12T16:33:35.266Z,0.04
2022-12-12T16:36:13.405Z,0.03
2022-12-12T16:38:45.441Z,-0.03
2022-12-12T16:41:18.822Z,-0.04
2022-12-12T16:43:51.050Z,-0.10
2022-12-12T16:46:25.910Z,-0.07
2022-12-12T16:49:04.743Z,-0.06
2022-12-12T16:51:41.163Z,-0.06
2022-12-12T16:54:17.263Z,-0.06
2022-12-12T16:56:52.679Z,-0.13
2022-12-12T16:59:24.733Z,-0.12
2022-12-12T17:01:56.710Z,-0.14
2022-12-12T17:04:29.261Z,-0.13
2022-12-12T17:07:01.291Z,-0.15
2022-12-12T17:09:33.252Z,-0.16
2022-12-12T17:12:05.645Z,-0.18
2022-12-12T17:14:37.967Z,-0.17
2022-12-12T17:17:09.920Z,-0.23
2022-12-12T17:19:41.925Z,-0.28
2022-12-12T17:22:13.946Z,-0.28
2022-12-12T17:24:45.875Z,-0.30
2022-12-12T17:27:17.841Z,-0.29
2022-12-12T17:29:49.786Z,-0.33
2022-12-12T17:32:24.521Z,-0.37
2022-12-12T17:34:57.172Z,-0.41
2022-12-12T17:37:29.196Z,-0.39
2022-12-12T17:40:01.974Z,-0.38
2022-12-12T17:42:34.195Z,-0.39
2022-12-12T17:45:08.154Z,-0.39
2022-12-12T17:47:40.189Z,-0.41
2022-12-12T17:50:12.805Z,-0.41
2022-12-12T17:52:45.022Z,-0.49
2022-12-12T17:55:53.044Z,-0.56
2022-12-12T17:58:08.987Z,-0.59
2022-12-12T18:00:41.008Z,-0.59
2022-12-12T18:03:13.189Z,-0.58
2022-12-12T18:05:45.133Z,-0.61
2022-12-12T18:08:18.432Z,-0.69
2022-12-12T18:10:50.436Z,-0.76
2022-12-12T18:13:22.482Z,-0.77
2022-12-12T18:15:59.220Z,-0.78
2022-12-12T18:18:32.457Z,-0.78
2022-12-12T18:21:35.867Z,-0.74
2022-12-12T18:24:08.137Z,-0.78
2022-12-12T18:26:40.519Z,-0.78
2022-12-12T18:29:13.927Z,-0.79
2022-12-12T18:31:45.967Z,-0.84
2022-12-12T18:34:18.132Z,-0.85
2022-12-12T18:36:50.270Z,-0.88
2022-12-12T18:39:22.342Z,-0.86
2022-12-12T18:41:54.351Z,-0.86
2022-12-12T18:44:26.291Z,-0.88
2022-12-12T18:46:58.320Z,-0.92
2022-12-12T18:49:30.291Z,-1.02
2022-12-12T18:52:04.561Z,-1.01
2022-12-12T18:54:36.519Z,-0.99
2022-12-12T18:57:08.522Z,-0.98
2022-12-12T18:59:40.533Z,-0.98
2022-12-12T19:02:13.902Z,-1.00
2022-12-12T19:04:47.777Z,-0.96
2022-12-12T19:07:19.944Z,-0.97
2022-12-12T19:09:52.209Z,-0.96
2022-12-12T19:12:24.391Z,-0.94
2022-12-12T19:17:48.514Z,-0.94
2022-12-12T19:20:20.478Z,-0.95
2022-12-12T19:22:52.444Z,-0.96
2022-12-12T19:25:24.449Z,-0.98
2022-12-12T19:27:56.377Z,-0.97
2022-12-12T19:30:29.810Z,-0.96
2022-12-12T19:33:01.805Z,-1.02
2022-12-12T19:35:38.135Z,-1.05
2022-12-12T19:38:10.136Z,-1.05
2022-12-12T19:40:42.720Z,-1.08
2022-12-12T19:43:14.752Z,-1.08
2022-12-12T19:45:46.773Z,-1.06
2022-12-12T19:48:18.707Z,-1.11
2022-12-12T19:50:50.727Z,-1.12
2022-12-12T19:53:22.708Z,-1.21
2022-12-12T19:55:54.759Z,-1.22
2022-12-12T19:58:27.293Z,-1.25
2022-12-12T20:01:08.696Z,-1.21
2022-12-12T20:03:41.451Z,-1.21
2022-12-12T20:06:13.677Z,-1.21
2022-12-12T20:08:46.322Z,-1.23
2022-12-12T20:11:22.056Z,-1.19
2022-12-12T20:13:56.932Z,-1.18
2022-12-12T20:16:30.310Z,-1.26
2022-12-12T20:19:02.362Z,-1.24
2022-12-12T20:24:26.515Z,-1.24
2022-12-12T20:26:59.967Z,-1.31
2022-12-12T20:29:32.650Z,-1.30
2022-12-12T20:32:05.070Z,-1.30
2022-12-12T20:34:37.038Z,-1.31
2022-12-12T20:37:09.439Z,-1.33
2022-12-12T20:39:41.793Z,-1.40
2022-12-12T20:42:13.967Z,-1.42
2022-12-12T20:44:45.911Z,-1.41
2022-12-12T20:47:18.008Z,-1.41
2022-12-12T20:49:50.561Z,-1.40
2022-12-12T20:52:22.622Z,-1.36
2022-12-12T20:54:54.682Z,-1.33
2022-12-12T20:57:27.271Z,-1.34
2022-12-12T20:59:59.258Z,-1.35
2022-12-12T21:02:31.285Z,-1.35
2022-12-12T21:05:05.695Z,-1.34
2022-12-12T21:07:37.725Z,-1.31
2022-12-12T21:10:10.019Z,-1.29
2022-12-12T21:12:42.496Z,-1.23
2022-12-12T21:15:14.753Z,-1.20
2022-12-12T21:17:47.008Z,-1.15
2022-12-12T21:20:19.052Z,-1.17
2022-12-12T21:22:51.063Z,-1.21
2022-12-12T21:25:24.437Z,-1.25
2022-12-12T21:27:57.221Z,-1.29
2022-12-12T21:30:29.212Z,-1.30
2022-12-12T21:33:01.309Z,-1.34
2022-12-12T21:35:35.601Z,-1.42
2022-12-12T21:38:07.631Z,-1.43
2022-12-12T21:40:39.717Z,-1.46
2022-12-12T21:43:11.661Z,-1.49
2022-12-12T21:45:43.616Z,-1.50
2022-12-12T21:48:15.677Z,-1.52
2022-12-12T21:50:47.731Z,-1.56
2022-12-12T21:53:34.736Z,-1.56
2022-12-12T21:56:08.765Z,-1.61
2022-12-12T21:58:42.416Z,-1.68
2022-12-12T22:01:20.454Z,-1.69
2022-12-12T22:03:54.079Z,-1.70
2022-12-12T22:06:29.778Z,-1.67
2022-12-12T22:09:07.121Z,-1.73
2022-12-12T22:11:50.194Z,-1.77
2022-12-12T22:14:24.603Z,-1.83
2022-12-12T22:16:56.506Z,-1.79
2022-12-12T22:19:28.695Z,-1.79
2022-12-12T22:22:00.628Z,-1.76
2022-12-12T22:24:32.705Z,-1.72
2022-12-12T22:27:04.617Z,-1.71
2022-12-12T22:29:36.801Z,-1.75
2022-12-12T22:32:08.735Z,-1.68
2022-12-12T22:34:40.665Z,-1.71
2022-12-12T22:37:12.601Z,-1.83
2022-12-12T22:39:44.682Z,-1.78
2022-12-12T22:42:16.668Z,-1.74
2022-12-12T22:44:49.012Z,-1.79
2022-12-12T22:47:20.928Z,-1.89
2022-12-12T22:49:52.880Z,-1.94
2022-12-12T22:52:25.586Z,-2.06
2022-12-12T22:54:57.557Z,-2.17
2022-12-12T22:57:29.472Z,-2.12
2022-12-12T23:00:01.548Z,-2.10
2022-12-12T23:02:34.286Z,-2.08
2022-12-12T23:05:06.607Z,-2.07
2022-12-12T23:07:38.654Z,-2.04
2022-12-12T23:10:10.697Z,-2.05
2022-12-12T23:12:42.702Z,-2.15
2022-12-12T23:15:14.986Z,-2.13
2022-12-12T23:17:47.114Z,-2.14
2022-12-12T23:20:20.259Z,-2.20
2022-12-12T23:22:52.200Z,-2.29
2022-12-12T23:25:24.149Z,-2.36
2022-12-12T23:27:56.074Z,-2.36
2022-12-12T23:30:28.219Z,-2.34
2022-12-12T23:33:00.153Z,-2.31
2022-12-12T23:35:32.078Z,-2.25
2022-12-12T23:38:04.036Z,-2.32
2022-12-12T23:40:36.016Z,-2.33
2022-12-12T23:43:08.059Z,-2.33
2022-12-12T23:45:40.169Z,-2.39
2022-12-12T23:48:12.158Z,-2.44
2022-12-12T23:50:44.121Z,-2.51
2022-12-12T23:53:16.083Z,-2.51
2022-12-12T23:55:48.087Z,-2.41
2022-12-12T23:58:20.166Z,-2.35
